createdAt,value
2023-02-15T00:02:04.791Z,99.90
2023-02-15T00:04:46.817Z,99.90
2023-02-15T00:07:18.840Z,99.90
2023-02-15T00:09:47.945Z,99.90
2023-02-15T00:12:16.874Z,99.90
2023-02-15T00:14:45.183Z,99.90
2023-02-15T00:17:13.298Z,99.90
2023-02-15T00:19:42.094Z,99.90
2023-02-15T00:22:10.203Z,99.90
2023-02-15T00:24:39.710Z,99.90
2023-02-15T00:27:07.975Z,99.90
2023-02-15T00:29:36.012Z,99.90
2023-02-15T00:32:04.142Z,99.90
2023-02-15T00:34:32.236Z,99.90
2023-02-15T00:37:00.396Z,99.90
2023-02-15T00:39:29.961Z,99.90
2023-02-15T00:41:59.764Z,99.90
2023-02-15T00:44:28.012Z,99.90
2023-02-15T00:46:56.116Z,99.90
2023-02-15T00:49:24.145Z,99.90
2023-02-15T00:51:52.300Z,99.90
2023-02-15T00:54:20.529Z,99.90
2023-02-15T00:56:48.596Z,99.90
2023-02-15T00:59:18.065Z,99.90
2023-02-15T01:01:46.080Z,99.90
2023-02-15T01:04:14.323Z,99.90
2023-02-15T01:06:42.364Z,99.90
2023-02-15T01:09:10.488Z,99.90
2023-02-15T01:11:38.676Z,99.90
2023-02-15T01:14:06.834Z,99.90
2023-02-15T01:16:36.860Z,99.90
2023-02-15T01:19:04.942Z,99.90
2023-02-15T01:21:35.565Z,99.90
2023-02-15T01:24:03.726Z,99.90
2023-02-15T01:26:31.804Z,99.90
2023-02-15T01:29:00.156Z,99.90
2023-02-15T01:31:28.427Z,99.90
2023-02-15T01:33:57.972Z,99.90
2023-02-15T01:36:26.037Z,99.90
2023-02-15T01:38:54.141Z,99.90
2023-02-15T01:41:24.120Z,99.90
2023-02-15T01:43:55.042Z,99.90
2023-02-15T01:46:28.374Z,99.90
2023-02-15T01:49:02.074Z,99.90
2023-02-15T01:51:32.213Z,99.90
2023-02-15T01:54:04.671Z,99.90
2023-02-15T01:56:36.711Z,99.90
2023-02-15T01:59:09.854Z,99.90
2023-02-15T02:01:38.518Z,99.90
2023-02-15T02:04:14.938Z,99.90
2023-02-15T02:06:43.459Z,99.90
2023-02-15T02:09:11.588Z,99.90
2023-02-15T02:11:42.477Z,99.90
2023-02-15T02:14:10.596Z,99.90
2023-02-15T02:16:47.759Z,99.90
2023-02-15T02:19:47.844Z,99.90
2023-02-15T02:22:52.334Z,99.90
2023-02-15T02:25:51.509Z,99.90
2023-02-15T02:28:47.063Z,99.90
2023-02-15T02:31:36.165Z,99.90
2023-02-15T02:34:12.984Z,99.90
2023-02-15T02:36:49.067Z,99.90
2023-02-15T02:39:26.169Z,99.90
2023-02-15T02:42:02.813Z,99.90
2023-02-15T02:44:37.311Z,99.90
2023-02-15T02:47:10.643Z,99.90
2023-02-15T02:49:42.367Z,99.90
2023-02-15T02:52:38.542Z,99.90
2023-02-15T02:55:11.074Z,99.90
2023-02-15T02:57:44.407Z,99.90
2023-02-15T03:00:14.066Z,99.90
2023-02-15T03:02:46.848Z,99.90
2023-02-15T03:05:20.487Z,99.90
2023-02-15T03:07:52.483Z,99.90
2023-02-15T03:10:23.098Z,99.90
2023-02-15T03:12:51.878Z,99.90
2023-02-15T03:15:22.770Z,99.90
2023-02-15T03:17:55.587Z,1.00
2023-02-15T03:20:28.318Z,1.00
2023-02-15T03:23:00.391Z,99.90
2023-02-15T03:25:34.296Z,99.90
2023-02-15T03:28:06.704Z,99.90
2023-02-15T03:30:36.261Z,99.90
2023-02-15T03:33:06.438Z,99.90
2023-02-15T03:35:40.913Z,99.90
2023-02-15T03:38:11.307Z,99.90
2023-02-15T03:41:00.283Z,99.90
2023-02-15T03:43:36.853Z,99.90
2023-02-15T03:46:11.964Z,99.90
2023-02-15T03:48:43.842Z,99.90
2023-02-15T03:51:35.806Z,99.90
2023-02-15T03:54:07.333Z,99.90
2023-02-15T03:56:36.665Z,99.90
2023-02-15T03:59:22.608Z,99.90
2023-02-15T04:02:06.245Z,99.90
2023-02-15T04:04:37.472Z,99.90
2023-02-15T04:07:08.946Z,99.90
2023-02-15T04:09:54.990Z,99.90
2023-02-15T04:12:23.177Z,99.90
2023-02-15T04:15:09.283Z,1.00
2023-02-15T04:17:38.656Z,99.90
2023-02-15T04:20:25.725Z,99.90
2023-02-15T04:23:13.052Z,99.90
2023-02-15T04:25:41.207Z,99.90
2023-02-15T04:28:09.652Z,99.90
2023-02-15T04:30:37.711Z,99.90
2023-02-15T04:33:05.735Z,99.90
2023-02-15T04:35:34.615Z,99.90
2023-02-15T04:38:04.214Z,99.90
2023-02-15T04:40:32.296Z,99.90
2023-02-15T04:43:00.353Z,99.90
2023-02-15T04:45:29.102Z,1.00
2023-02-15T04:47:57.571Z,99.90
2023-02-15T04:50:25.677Z,99.90
2023-02-15T04:52:53.721Z,99.90
2023-02-15T04:55:23.133Z,99.90
2023-02-15T04:57:51.208Z,99.90
2023-02-15T05:00:19.894Z,99.90
2023-02-15T05:02:47.952Z,99.90
2023-02-15T05:05:16.226Z,99.90
2023-02-15T05:07:48.904Z,99.90
2023-02-15T05:10:17.391Z,99.90
2023-02-15T05:12:46.995Z,99.90
2023-02-15T05:15:15.062Z,99.90
2023-02-15T05:17:43.144Z,99.90
2023-02-15T05:20:12.208Z,99.90
2023-02-15T05:22:41.743Z,99.90
2023-02-15T05:25:28.204Z,99.90
2023-02-15T05:28:15.102Z,99.90
2023-02-15T05:30:43.941Z,99.90
2023-02-15T05:33:12.226Z,99.90
2023-02-15T05:35:40.271Z,99.90
2023-02-15T05:38:08.472Z,99.90
2023-02-15T05:40:36.836Z,99.90
2023-02-15T05:43:06.349Z,99.90
2023-02-15T05:45:34.395Z,99.90
2023-02-15T05:48:02.475Z,99.90
2023-02-15T05:50:30.646Z,99.90
2023-02-15T05:52:58.776Z,99.90
2023-02-15T05:55:26.920Z,99.90
2023-02-15T05:57:55.031Z,99.90
2023-02-15T06:00:24.770Z,99.90
2023-02-15T06:02:52.993Z,99.90
2023-02-15T06:05:21.057Z,99.90
2023-02-15T06:07:49.141Z,99.90
2023-02-15T06:10:17.531Z,99.90
2023-02-15T06:12:46.425Z,99.90
2023-02-15T06:15:15.008Z,99.90
2023-02-15T06:17:44.883Z,99.90
2023-02-15T06:20:13.952Z,99.90
2023-02-15T06:22:42.074Z,99.90
2023-02-15T06:25:11.074Z,99.90
2023-02-15T06:27:39.589Z,99.90
2023-02-15T06:30:09.141Z,99.90
2023-02-15T06:32:37.642Z,99.90
2023-02-15T06:35:07.722Z,99.90
2023-02-15T06:37:35.838Z,99.90
2023-02-15T06:40:05.041Z,99.90
2023-02-15T06:42:33.582Z,99.90
2023-02-15T06:45:01.728Z,99.90
2023-02-15T06:47:29.942Z,99.90
2023-02-15T06:49:58.546Z,99.90
2023-02-15T06:52:29.347Z,99.90
2023-02-15T06:54:57.501Z,99.90
2023-02-15T06:57:25.600Z,99.90
2023-02-15T06:59:54.243Z,99.90
2023-02-15T07:02:22.430Z,99.90
2023-02-15T07:04:50.650Z,99.90
2023-02-15T07:07:18.825Z,99.90
2023-02-15T07:09:48.255Z,99.90
2023-02-15T07:12:33.800Z,99.90
2023-02-15T07:15:01.922Z,99.90
2023-02-15T07:17:38.079Z,99.90
2023-02-15T07:20:09.375Z,99.90
2023-02-15T07:22:38.253Z,99.90
2023-02-15T07:25:09.854Z,99.90
2023-02-15T07:27:38.197Z,99.90
2023-02-15T07:30:08.720Z,99.90
2023-02-15T07:32:36.894Z,99.90
2023-02-15T07:35:05.136Z,99.90
2023-02-15T07:37:33.220Z,99.90
2023-02-15T07:40:01.245Z,99.90
2023-02-15T07:42:32.919Z,99.90
2023-02-15T07:45:00.976Z,99.90
2023-02-15T07:47:29.130Z,99.90
2023-02-15T07:49:57.198Z,99.90
2023-02-15T07:52:25.255Z,99.90
2023-02-15T07:54:53.383Z,99.90
2023-02-15T07:57:21.443Z,99.90
2023-02-15T07:59:50.866Z,99.90
2023-02-15T08:02:19.019Z,99.90
2023-02-15T08:04:47.134Z,99.90
2023-02-15T08:07:16.312Z,99.90
2023-02-15T08:09:44.370Z,99.90
2023-02-15T08:12:12.546Z,99.90
2023-02-15T08:14:40.665Z,99.90
2023-02-15T08:17:10.054Z,99.90
2023-02-15T08:19:38.352Z,99.90
2023-02-15T08:22:07.974Z,99.90
2023-02-15T08:24:38.683Z,99.90
2023-02-15T08:27:08.195Z,99.90
2023-02-15T08:29:38.448Z,99.90
2023-02-15T08:32:08.352Z,99.90
2023-02-15T08:34:39.908Z,99.90
2023-02-15T08:37:08.206Z,99.90
2023-02-15T08:39:36.363Z,99.90
2023-02-15T08:42:04.506Z,99.90
2023-02-15T08:44:32.742Z,99.90
2023-02-15T08:47:04.550Z,99.90
2023-02-15T08:49:33.433Z,99.90
2023-02-15T08:52:02.924Z,99.90
2023-02-15T08:54:31.345Z,99.90
2023-02-15T08:56:59.817Z,99.90
2023-02-15T08:59:28.223Z,99.90
2023-02-15T09:01:56.811Z,99.90
2023-02-15T09:04:25.091Z,99.90
2023-02-15T09:06:53.545Z,99.90
2023-02-15T09:09:23.447Z,99.90
2023-02-15T09:11:58.819Z,99.90
2023-02-15T09:14:28.680Z,99.90
2023-02-15T09:16:57.041Z,99.90
2023-02-15T09:19:26.061Z,99.90
2023-02-15T09:21:54.378Z,99.90
2023-02-15T09:24:23.970Z,99.90
2023-02-15T09:26:52.129Z,99.90
2023-02-15T09:29:21.009Z,99.90
2023-02-15T09:31:50.940Z,99.90
2023-02-15T09:34:21.882Z,99.90
2023-02-15T09:36:51.301Z,99.90
2023-02-15T09:39:21.425Z,99.90
2023-02-15T09:42:17.959Z,99.90
2023-02-15T09:45:12.271Z,99.90
2023-02-15T09:48:21.255Z,99.90
2023-02-15T09:50:59.333Z,99.90
2023-02-15T09:53:39.786Z,99.90
2023-02-15T09:56:16.670Z,99.90
2023-02-15T09:58:55.632Z,99.90
2023-02-15T10:01:31.731Z,99.90
2023-02-15T10:04:12.103Z,99.90
2023-02-15T10:06:47.307Z,99.90
2023-02-15T10:09:41.579Z,99.90
2023-02-15T10:12:25.985Z,99.90
2023-02-15T10:15:19.072Z,99.90
2023-02-15T10:18:01.570Z,99.90
2023-02-15T10:20:39.239Z,99.90
2023-02-15T10:23:27.954Z,99.90
2023-02-15T10:26:06.786Z,99.90
2023-02-15T10:28:45.541Z,99.90
2023-02-15T10:31:25.809Z,99.90
2023-02-15T10:34:17.375Z,99.90
2023-02-15T10:37:12.453Z,99.90
2023-02-15T10:39:50.658Z,99.90
2023-02-15T10:42:29.313Z,99.90
2023-02-15T10:45:08.950Z,99.90
2023-02-15T10:47:57.428Z,99.90
2023-02-15T10:50:36.442Z,99.90
2023-02-15T10:53:37.264Z,99.90
2023-02-15T10:56:13.092Z,99.90
2023-02-15T10:59:11.938Z,99.90
2023-02-15T11:01:46.967Z,99.90
2023-02-15T11:04:47.937Z,99.90
2023-02-15T11:07:20.769Z,99.90
2023-02-15T11:09:51.934Z,99.90
2023-02-15T11:12:23.581Z,99.90
2023-02-15T11:14:57.531Z,99.90
2023-02-15T11:17:31.134Z,99.90
2023-02-15T11:20:10.109Z,99.90
2023-02-15T11:22:38.394Z,99.90
2023-02-15T11:25:18.293Z,99.90
2023-02-15T11:27:49.693Z,99.90
2023-02-15T11:30:22.131Z,99.90
2023-02-15T11:32:52.491Z,99.90
2023-02-15T11:35:26.772Z,99.90
2023-02-15T11:38:00.856Z,99.90
2023-02-15T11:40:32.344Z,99.90
2023-02-15T11:43:06.020Z,99.90
2023-02-15T11:45:36.451Z,99.90
2023-02-15T11:48:12.396Z,99.90
2023-02-15T11:50:43.046Z,99.90
2023-02-15T11:53:15.712Z,99.90
2023-02-15T11:55:45.824Z,99.90
2023-02-15T11:58:23.549Z,96.90
2023-02-15T12:00:54.718Z,94.80
2023-02-15T12:03:29.404Z,89.80
2023-02-15T12:06:02.713Z,84.80
2023-02-15T12:08:39.117Z,81.40
2023-02-15T12:11:13.295Z,78.80
2023-02-15T12:13:57.801Z,76.30
2023-02-15T12:16:26.599Z,75.60
2023-02-15T12:18:57.321Z,72.60
2023-02-15T12:21:33.560Z,71.40
2023-02-15T12:24:06.279Z,66.40
2023-02-15T12:26:37.421Z,66.00
2023-02-15T12:29:15.374Z,65.20
2023-02-15T12:31:46.983Z,64.20
2023-02-15T12:34:21.499Z,63.50
2023-02-15T12:36:58.763Z,65.30
2023-02-15T12:39:28.586Z,65.90
2023-02-15T12:42:06.175Z,67.60
2023-02-15T12:44:35.531Z,68.10
2023-02-15T12:47:05.757Z,67.40
2023-02-15T12:49:35.390Z,67.00
2023-02-15T12:52:07.734Z,64.10
2023-02-15T12:54:41.390Z,64.90
2023-02-15T12:57:23.413Z,65.40
2023-02-15T12:59:53.307Z,64.20
2023-02-15T13:02:28.921Z,63.50
2023-02-15T13:04:58.977Z,61.50
2023-02-15T13:07:33.618Z,63.60
2023-02-15T13:10:01.903Z,60.90
2023-02-15T13:12:32.945Z,61.00
2023-02-15T13:15:03.447Z,61.60
2023-02-15T13:17:35.258Z,62.10
2023-02-15T13:20:08.660Z,60.80
2023-02-15T13:22:44.047Z,61.30
2023-02-15T13:25:19.822Z,59.70
2023-02-15T13:27:50.603Z,60.90
2023-02-15T13:30:30.320Z,61.40
2023-02-15T13:33:05.702Z,60.30
2023-02-15T13:35:41.963Z,60.50
2023-02-15T13:38:25.419Z,60.30
2023-02-15T13:40:59.907Z,60.80
2023-02-15T13:43:46.836Z,59.70
2023-02-15T13:46:35.742Z,58.60
2023-02-15T13:49:17.634Z,58.80
2023-02-15T13:51:53.181Z,57.40
2023-02-15T13:54:45.991Z,57.00
2023-02-15T13:57:40.944Z,57.10
2023-02-15T14:00:20.139Z,57.70
2023-02-15T14:03:24.337Z,56.90
2023-02-15T14:06:13.832Z,56.10
2023-02-15T14:09:02.392Z,57.30
2023-02-15T14:11:39.640Z,56.10
2023-02-15T14:14:43.431Z,54.20
2023-02-15T14:17:24.286Z,53.50
2023-02-15T14:19:56.524Z,52.20
2023-02-15T14:22:33.754Z,50.20
2023-02-15T14:25:19.207Z,48.00
2023-02-15T14:27:56.753Z,47.60
2023-02-15T14:30:29.238Z,44.80
2023-02-15T14:32:59.845Z,59.30
2023-02-15T14:35:32.254Z,44.40
2023-02-15T14:38:06.572Z,43.90
2023-02-15T14:41:04.594Z,43.00
2023-02-15T14:43:49.891Z,42.30
2023-02-15T14:46:28.791Z,41.60
2023-02-15T14:48:59.469Z,42.80
2023-02-15T14:51:57.842Z,42.90
2023-02-15T14:55:01.458Z,43.70
2023-02-15T14:57:36.350Z,44.60
2023-02-15T15:00:39.819Z,43.70
2023-02-15T15:03:25.275Z,41.60
2023-02-15T15:05:56.423Z,42.40
2023-02-15T15:08:31.045Z,41.80
2023-02-15T15:11:42.111Z,39.90
2023-02-15T15:14:32.982Z,38.60
2023-02-15T15:17:02.903Z,40.40
2023-02-15T15:20:09.217Z,40.70
2023-02-15T15:22:38.459Z,38.80
2023-02-15T15:25:12.501Z,38.30
2023-02-15T15:27:47.123Z,36.50
2023-02-15T15:31:01.015Z,36.70
2023-02-15T15:34:15.340Z,36.40
2023-02-15T15:37:27.495Z,33.80
2023-02-15T15:40:30.649Z,32.70
2023-02-15T15:43:48.955Z,31.50
2023-02-15T15:46:44.436Z,30.20
2023-02-15T15:49:17.368Z,28.60
2023-02-15T15:51:46.705Z,29.10
2023-02-15T15:54:20.050Z,28.20
2023-02-15T15:56:52.190Z,27.80
2023-02-15T15:59:23.766Z,27.30
2023-02-15T16:01:51.968Z,26.80
2023-02-15T16:04:28.539Z,26.60
2023-02-15T16:06:56.715Z,25.30
2023-02-15T16:09:27.607Z,24.00
2023-02-15T16:11:59.389Z,23.80
2023-02-15T16:14:31.181Z,23.70
2023-02-15T16:17:02.962Z,23.60
2023-02-15T16:19:35.327Z,22.90
2023-02-15T16:22:05.207Z,21.80
2023-02-15T16:25:11.943Z,20.70
2023-02-15T16:27:42.994Z,20.50
2023-02-15T16:30:26.927Z,20.50
2023-02-15T16:32:56.463Z,20.00
2023-02-15T16:35:25.633Z,17.40
2023-02-15T16:37:53.775Z,17.30
2023-02-15T16:40:34.911Z,16.50
2023-02-15T16:43:07.540Z,17.00
2023-02-15T16:45:38.106Z,17.10
2023-02-15T16:48:12.734Z,16.40
2023-02-15T16:50:41.677Z,15.80
2023-02-15T16:53:19.091Z,17.20
2023-02-15T16:55:52.256Z,17.30
2023-02-15T16:58:28.311Z,17.20
2023-02-15T17:01:00.413Z,17.10
2023-02-15T17:03:29.184Z,17.90
2023-02-15T17:05:59.079Z,16.80
2023-02-15T17:08:30.117Z,15.30
2023-02-15T17:11:23.490Z,13.40
2023-02-15T17:14:16.086Z,11.70
2023-02-15T17:16:50.120Z,11.90
2023-02-15T17:19:22.893Z,13.00
2023-02-15T17:21:54.848Z,11.80
2023-02-15T17:24:30.785Z,12.30
2023-02-15T17:27:02.558Z,11.20
2023-02-15T17:29:36.310Z,11.70
2023-02-15T17:32:05.929Z,10.70
2023-02-15T17:34:59.046Z,11.20
2023-02-15T17:37:30.956Z,10.10
2023-02-15T17:40:00.497Z,10.20
2023-02-15T17:42:28.691Z,10.60
2023-02-15T17:44:58.129Z,12.90
2023-02-15T17:47:27.750Z,11.70
2023-02-15T17:49:56.173Z,11.10
2023-02-15T17:52:25.129Z,10.30
2023-02-15T17:55:11.021Z,10.30
2023-02-15T17:57:39.201Z,9.80
2023-02-15T18:00:32.231Z,9.40
2023-02-15T18:03:17.911Z,9.90
2023-02-15T18:06:03.725Z,9.60
2023-02-15T18:08:49.315Z,8.40
2023-02-15T18:11:36.959Z,9.60
2023-02-15T18:14:05.677Z,9.50
2023-02-15T18:16:37.766Z,9.60
2023-02-15T18:19:07.312Z,9.20
2023-02-15T18:21:35.776Z,8.80
2023-02-15T18:24:03.866Z,9.80
2023-02-15T18:26:32.126Z,11.70
2023-02-15T18:29:00.223Z,11.90
2023-02-15T18:31:28.488Z,12.60
2023-02-15T18:34:00.823Z,13.00
2023-02-15T18:36:32.646Z,12.50
2023-02-15T18:39:07.773Z,13.00
2023-02-15T18:41:37.025Z,12.20
2023-02-15T18:44:10.029Z,14.00
2023-02-15T18:46:38.034Z,13.20
2023-02-15T18:49:07.467Z,14.00
2023-02-15T18:51:40.175Z,14.30
2023-02-15T18:54:18.254Z,17.00
2023-02-15T18:56:50.053Z,19.20
2023-02-15T18:59:20.996Z,19.30
2023-02-15T19:01:49.076Z,20.90
2023-02-15T19:04:18.588Z,21.60
2023-02-15T19:06:48.907Z,20.70
2023-02-15T19:09:19.393Z,24.60
2023-02-15T19:11:51.596Z,24.40
2023-02-15T19:14:28.697Z,23.90
2023-02-15T19:16:57.363Z,25.20
2023-02-15T19:19:27.842Z,26.00
2023-02-15T19:21:56.603Z,26.80
2023-02-15T19:24:27.588Z,27.90
2023-02-15T19:26:55.789Z,28.90
2023-02-15T19:29:29.380Z,29.80
2023-02-15T19:31:58.494Z,30.10
2023-02-15T19:34:29.269Z,31.20
2023-02-15T19:36:57.727Z,32.00
2023-02-15T19:39:28.893Z,33.00
2023-02-15T19:41:57.413Z,33.50
2023-02-15T19:44:25.637Z,33.00
2023-02-15T19:46:53.691Z,29.30
2023-02-15T19:49:21.782Z,28.70
2023-02-15T19:51:51.327Z,28.20
2023-02-15T19:54:28.284Z,40.60
2023-02-15T19:56:56.667Z,27.30
2023-02-15T19:59:27.182Z,27.60
2023-02-15T20:01:55.358Z,28.10
2023-02-15T20:04:23.769Z,28.90
2023-02-15T20:06:55.764Z,29.60
2023-02-15T20:09:26.001Z,28.90
2023-02-15T20:11:54.527Z,30.10
2023-02-15T20:14:23.750Z,33.50
2023-02-15T20:16:52.322Z,34.60
2023-02-15T20:19:20.478Z,35.90
2023-02-15T20:21:54.460Z,35.50
2023-02-15T20:24:26.026Z,33.90
2023-02-15T20:26:54.308Z,32.80
2023-02-15T20:29:22.545Z,33.00
2023-02-15T20:31:53.398Z,34.70
2023-02-15T20:34:23.084Z,38.00
2023-02-15T20:36:52.887Z,39.30
2023-02-15T20:39:21.087Z,40.40
2023-02-15T20:41:50.661Z,41.40
2023-02-15T20:44:24.749Z,40.60
2023-02-15T20:46:55.342Z,42.20
2023-02-15T20:49:25.132Z,43.50
2023-02-15T20:51:53.895Z,47.30
2023-02-15T20:54:24.378Z,46.50
2023-02-15T20:56:54.587Z,43.40
2023-02-15T20:59:25.922Z,47.20
2023-02-15T21:01:59.022Z,49.90
2023-02-15T21:04:31.452Z,50.90
2023-02-15T21:07:00.091Z,53.30
2023-02-15T21:09:28.656Z,55.80
2023-02-15T21:12:02.309Z,58.10
2023-02-15T21:14:30.535Z,56.90
2023-02-15T21:16:58.834Z,56.30
2023-02-15T21:19:27.030Z,57.70
2023-02-15T21:21:55.505Z,57.40
2023-02-15T21:24:26.694Z,57.30
2023-02-15T21:26:55.850Z,61.00
2023-02-15T21:29:28.041Z,62.70
2023-02-15T21:31:58.380Z,61.30
2023-02-15T21:34:26.964Z,58.70
2023-02-15T21:36:55.210Z,81.50
2023-02-15T21:39:25.353Z,69.80
2023-02-15T21:42:13.059Z,73.90
2023-02-15T21:45:00.324Z,68.80
2023-02-15T21:47:47.972Z,69.70
2023-02-15T21:50:35.661Z,75.90
2023-02-15T21:53:04.623Z,74.10
2023-02-15T21:55:33.657Z,72.60
2023-02-15T21:58:02.271Z,78.80
2023-02-15T22:00:32.751Z,81.30
2023-02-15T22:03:02.072Z,85.00
2023-02-15T22:05:31.721Z,84.00
2023-02-15T22:08:00.201Z,87.10
2023-02-15T22:10:31.390Z,82.10
2023-02-15T22:13:01.632Z,83.40
2023-02-15T22:15:36.856Z,84.60
2023-02-15T22:18:06.483Z,81.40
2023-02-15T22:20:34.579Z,80.60
2023-02-15T22:23:02.855Z,82.80
2023-02-15T22:25:30.969Z,85.80
2023-02-15T22:27:59.168Z,84.60
2023-02-15T22:30:29.922Z,90.10
2023-02-15T22:33:00.947Z,94.10
2023-02-15T22:35:30.996Z,92.00
2023-02-15T22:37:59.458Z,94.80
2023-02-15T22:40:31.402Z,95.00
2023-02-15T22:43:02.427Z,97.90
2023-02-15T22:45:30.498Z,99.90
2023-02-15T22:48:01.566Z,99.90
2023-02-15T22:50:31.966Z,99.90
2023-02-15T22:53:01.581Z,98.60
2023-02-15T22:55:32.089Z,96.00
2023-02-15T22:58:01.078Z,95.60
2023-02-15T23:00:32.279Z,97.70
2023-02-15T23:03:02.266Z,97.40
2023-02-15T23:05:32.418Z,95.20
2023-02-15T23:08:00.513Z,95.50
2023-02-15T23:10:31.264Z,95.30
2023-02-15T23:13:18.915Z,95.40
2023-02-15T23:15:48.923Z,95.50
2023-02-15T23:18:21.240Z,95.00
2023-02-15T23:20:52.644Z,95.10
2023-02-15T23:23:27.249Z,95.00
2023-02-15T23:25:55.398Z,97.40
2023-02-15T23:28:28.030Z,95.50
2023-02-15T23:30:56.494Z,96.30
2023-02-15T23:33:29.143Z,99.50
2023-02-15T23:35:57.489Z,99.90
2023-02-15T23:38:27.230Z,99.90
2023-02-15T23:41:15.925Z,99.90
2023-02-15T23:43:46.496Z,98.90
2023-02-15T23:46:25.910Z,99.80
2023-02-15T23:48:56.150Z,99.90
2023-02-15T23:51:29.177Z,99.90
2023-02-15T23:53:57.306Z,99.90
2023-02-15T23:56:25.376Z,99.90
2023-02-15T23:58:53.556Z,99.90
